Hampton Falls, New Hampshire
Current Conditions -  °F | °C
As of 7:58 PM on Tuesday 25 Nov 2014 (Local Time) from KPSM Reporting Station
Broken Clouds Broken Clouds  
Wind Chill: 46°   Ceiling: 20000
Heat Index: 48°   Visibility: 10mi
Dew Point: 26°   Wind: 5mph
Humidity: 44%   Direction: 250°WSW
Pressure: 30"   Gusts: NA
Location:  42.92°N, 70.86°W
Report Text: KPSM 260058Z 25004KT 10SM BKN200 09/M03 A3000 RMK AO2A SLP163 T00871031
Loading
Personal Weather Stations






























Interactive Weather Map New forecast layout! Learn more

10-Day Weather Forecast

Advertisements
Track Severe Weather on mobile